Time;durP1;ratioP1;P1;durP2;ratioP2;P2;SDS_P1;SDS_P2;PMS_P1;PMS_P2;Temp;Humidity;BMP_temperature;BMP_pressure;BME280_temperature;BME280_humidity;BME280_pressure;Samples;Min_cycle;Max_cycle;Signal;HPM_P1;HPM_P2
2023/04/23 00:00:11;;;;;;;23.02;17.88;;;11.30;99.90;;;;;;6156328;23;20017;-92
2023/04/23 00:02:37;;;;;;;23.48;17.52;;;11.20;99.90;;;;;;6156929;23;20021;-93
2023/04/23 00:05:05;;;;;;;19.92;16.73;;;11.20;99.90;;;;;;6156462;23;20377;-92
2023/04/23 00:07:32;;;;;;;22.38;18.45;;;11.20;99.90;;;;;;6156282;23;20010;-92
2023/04/23 00:09:59;;;;;;;24.38;18.23;;;11.10;99.90;;;;;;6155440;23;20369;-92
2023/04/23 00:12:26;;;;;;;22.33;17.10;;;11.10;99.90;;;;;;6156104;23;20013;-93
2023/04/23 00:14:52;;;;;;;23.75;18.70;;;11.00;99.90;;;;;;6154909;23;20048;-92
2023/04/23 00:17:18;;;;;;;22.35;17.50;;;11.00;99.90;;;;;;6157392;23;20461;-92
2023/04/23 00:19:45;;;;;;;23.23;18.00;;;11.00;99.90;;;;;;6155242;23;20093;-93
2023/04/23 00:22:12;;;;;;;23.90;18.10;;;11.00;99.90;;;;;;6155040;23;20141;-92
2023/04/23 00:24:38;;;;;;;23.20;17.77;;;10.90;99.90;;;;;;6156826;23;20088;-91
2023/04/23 00:27:05;;;;;;;22.85;17.88;;;10.90;99.90;;;;;;6155721;23;20148;-92
2023/04/23 00:29:30;;;;;;;20.55;16.40;;;10.90;99.90;;;;;;6155277;23;20022;-93
2023/04/23 00:31:56;;;;;;;24.42;18.48;;;10.80;99.90;;;;;;6157107;23;20372;-92
2023/04/23 00:34:22;;;;;;;22.17;18.13;;;10.80;99.90;;;;;;6155859;23;20021;-92
2023/04/23 00:36:47;;;;;;;22.52;18.17;;;10.80;99.90;;;;;;6155334;23;20025;-93
2023/04/23 00:39:13;;;;;;;23.15;18.05;;;10.80;99.90;;;;;;6155828;23;20109;-92
2023/04/23 00:41:40;;;;;;;22.77;17.73;;;10.80;99.90;;;;;;6157188;23;20017;-92
2023/04/23 00:44:07;;;;;;;21.55;17.38;;;10.70;99.90;;;;;;6156594;23;20013;-92
2023/04/23 00:46:34;;;;;;;24.85;18.80;;;10.70;99.90;;;;;;6157065;23;20127;-92
2023/04/23 00:49:00;;;;;;;23.40;18.10;;;10.70;99.90;;;;;;6181091;23;20069;-93
2023/04/23 00:51:27;;;;;;;21.02;16.88;;;10.70;99.90;;;;;;6157240;23;20023;-92
2023/04/23 00:53:54;;;;;;;23.45;17.92;;;10.60;99.90;;;;;;6155357;23;20022;-93
2023/04/23 00:56:20;;;;;;;24.50;18.13;;;10.50;99.90;;;;;;6157514;23;20068;-93
2023/04/23 00:58:46;;;;;;;24.30;18.25;;;10.50;99.90;;;;;;6179295;23;20018;-91
2023/04/23 01:01:12;;;;;;;25.38;18.00;;;10.50;99.90;;;;;;6155299;23;20312;-93
2023/04/23 01:03:40;;;;;;;23.60;18.48;;;10.50;99.90;;;;;;6154750;23;20068;-93
2023/04/23 01:06:06;;;;;;;22.00;17.65;;;10.40;99.90;;;;;;6154945;23;20019;-92
2023/04/23 01:08:33;;;;;;;22.98;17.48;;;10.40;99.90;;;;;;6155439;23;20121;-91
2023/04/23 01:11:01;;;;;;;22.38;17.75;;;10.40;99.90;;;;;;6154677;23;20052;-92
2023/04/23 01:13:28;;;;;;;23.80;19.00;;;10.40;99.90;;;;;;6180030;23;20092;-92
2023/04/23 01:15:54;;;;;;;25.55;19.55;;;10.30;99.90;;;;;;6154851;23;20434;-92
2023/04/23 01:18:21;;;;;;;27.00;20.10;;;10.30;99.90;;;;;;6156317;23;20503;-92
2023/04/23 01:20:47;;;;;;;27.58;19.45;;;10.30;99.90;;;;;;6179359;23;20057;-92
2023/04/23 01:23:12;;;;;;;24.92;18.40;;;10.20;99.90;;;;;;6156403;23;20021;-93
2023/04/23 01:25:38;;;;;;;28.48;21.08;;;10.20;99.90;;;;;;6154338;23;20009;-92
2023/04/23 01:28:08;;;;;;;22.10;17.75;;;10.10;99.90;;;;;;6154856;23;20021;-92
2023/04/23 01:30:34;;;;;;;28.40;21.38;;;10.10;99.90;;;;;;6156320;23;20018;-92
2023/04/23 01:33:01;;;;;;;28.60;21.85;;;10.00;99.90;;;;;;6155460;23;20044;-91
2023/04/23 01:35:28;;;;;;;23.58;19.02;;;10.00;99.90;;;;;;6154962;23;20014;-91
2023/04/23 01:37:55;;;;;;;25.85;20.52;;;10.00;99.90;;;;;;6156357;23;20048;-92
2023/04/23 01:40:21;;;;;;;27.17;21.00;;;10.00;99.90;;;;;;6154645;23;20342;-92
2023/04/23 01:42:47;;;;;;;28.00;21.00;;;9.90;99.90;;;;;;6156578;23;20017;-93
2023/04/23 01:45:13;;;;;;;29.13;21.73;;;9.90;99.90;;;;;;6154938;23;20056;-92
2023/04/23 01:47:40;;;;;;;27.63;20.83;;;9.90;99.90;;;;;;6153854;23;20379;-92
2023/04/23 01:50:07;;;;;;;38.95;28.10;;;9.90;99.90;;;;;;6154044;23;20096;-91
2023/04/23 01:52:33;;;;;;;33.03;23.40;;;9.80;99.90;;;;;;6154467;23;20022;-91
2023/04/23 01:54:58;;;;;;;36.75;26.45;;;9.80;99.90;;;;;;6154097;23;20334;-92
2023/04/23 01:57:25;;;;;;;31.70;23.27;;;9.80;99.90;;;;;;6155022;23;20017;-92
2023/04/23 01:59:53;;;;;;;31.35;23.08;;;9.80;99.90;;;;;;6154345;23;20021;-92
2023/04/23 02:02:19;;;;;;;34.35;25.05;;;9.70;99.90;;;;;;6155928;23;20021;-92
2023/04/23 02:04:47;;;;;;;43.58;30.42;;;9.70;99.90;;;;;;6153645;23;20096;-91
2023/04/23 02:07:13;;;;;;;33.17;25.27;;;9.70;99.90;;;;;;6154086;23;20097;-93
2023/04/23 02:09:39;;;;;;;36.45;25.38;;;9.70;99.90;;;;;;6154289;23;20017;-91
2023/04/23 02:12:05;;;;;;;35.22;25.63;;;9.70;99.90;;;;;;6154747;23;20018;-93
2023/04/23 02:14:30;;;;;;;38.20;26.42;;;9.70;99.90;;;;;;6156061;23;20109;-92
2023/04/23 02:16:56;;;;;;;40.10;28.25;;;9.70;99.90;;;;;;6154765;23;20080;-92
2023/04/23 02:19:22;;;;;;;37.75;27.67;;;9.60;99.90;;;;;;6154666;23;20076;-91
2023/04/23 02:21:48;;;;;;;39.08;27.05;;;9.60;99.90;;;;;;6156073;23;20327;-92
2023/04/23 02:24:14;;;;;;;39.75;28.75;;;9.60;99.90;;;;;;6156541;23;20040;-92
2023/04/23 02:26:39;;;;;;;40.30;28.52;;;9.60;99.90;;;;;;6155417;23;20075;-91
2023/04/23 02:29:05;;;;;;;39.70;28.50;;;9.60;99.90;;;;;;6155824;23;20025;-93
2023/04/23 02:31:31;;;;;;;42.08;29.40;;;9.60;99.90;;;;;;6156110;23;20431;-91
2023/04/23 02:33:56;;;;;;;40.83;29.58;;;9.60;99.90;;;;;;6158125;23;20049;-92
2023/04/23 02:36:22;;;;;;;41.13;29.95;;;9.60;99.90;;;;;;6156374;23;20029;-92
2023/04/23 02:38:49;;;;;;;42.67;31.45;;;9.60;99.90;;;;;;6156353;23;20022;-92
2023/04/23 02:41:15;;;;;;;41.50;29.33;;;9.50;99.90;;;;;;6158275;23;20024;-92
2023/04/23 02:43:41;;;;;;;42.05;31.33;;;9.50;99.90;;;;;;6155617;23;20017;-91
2023/04/23 02:46:07;;;;;;;45.72;32.30;;;9.50;99.90;;;;;;6156238;23;20349;-91
2023/04/23 02:48:38;;;;;;;47.05;32.63;;;9.50;99.90;;;;;;6156262;23;20020;-92
2023/04/23 02:51:05;;;;;;;44.60;32.55;;;9.50;99.90;;;;;;6156305;23;20092;-92
2023/04/23 02:53:31;;;;;;;43.85;32.25;;;9.50;99.90;;;;;;6158445;23;20368;-92
2023/04/23 02:55:56;;;;;;;42.72;31.67;;;9.50;99.90;;;;;;6157850;23;20045;-91
2023/04/23 02:58:22;;;;;;;47.13;33.95;;;9.50;99.90;;;;;;6157557;23;20497;-91
2023/04/23 03:00:48;;;;;;;46.92;32.65;;;9.50;99.90;;;;;;6156685;23;20017;-92
2023/04/23 03:03:15;;;;;;;44.47;32.67;;;9.50;99.90;;;;;;6158248;23;20024;-92
2023/04/23 03:05:40;;;;;;;45.72;33.20;;;9.50;99.90;;;;;;6155970;23;20045;-92
2023/04/23 03:08:06;;;;;;;47.75;33.85;;;9.50;99.90;;;;;;6156585;23;20021;-91
2023/04/23 03:10:31;;;;;;;43.97;32.75;;;9.40;99.90;;;;;;6157645;23;20049;-92
2023/04/23 03:12:57;;;;;;;46.00;32.90;;;9.40;99.90;;;;;;6158397;23;20048;-92
2023/04/23 03:15:26;;;;;;;43.95;32.20;;;9.40;99.90;;;;;;6156353;23;20021;-90
2023/04/23 03:17:52;;;;;;;44.22;31.20;;;9.40;99.90;;;;;;6155470;23;20538;-92
2023/04/23 03:20:18;;;;;;;43.55;31.23;;;9.50;99.90;;;;;;6158274;23;20017;-92
2023/04/23 03:22:44;;;;;;;42.97;31.15;;;9.40;99.90;;;;;;6155951;23;20442;-91
2023/04/23 03:25:10;;;;;;;42.90;31.88;;;9.40;99.90;;;;;;6157445;23;20014;-91
2023/04/23 03:27:39;;;;;;;39.97;30.38;;;9.40;99.90;;;;;;6155972;23;20018;-91
2023/04/23 03:30:07;;;;;;;41.03;30.90;;;9.40;99.90;;;;;;6158102;23;20055;-91
2023/04/23 03:32:33;;;;;;;42.67;31.38;;;9.30;99.90;;;;;;6155174;23;20024;-91
2023/04/23 03:34:59;;;;;;;40.75;30.77;;;9.30;99.90;;;;;;6157521;23;20018;-91
2023/04/23 03:37:25;;;;;;;43.55;31.30;;;9.30;99.90;;;;;;6157715;23;20402;-92
2023/04/23 03:39:51;;;;;;;40.78;31.23;;;9.30;99.90;;;;;;6156782;23;20319;-91
2023/04/23 03:42:17;;;;;;;39.05;29.55;;;9.30;99.90;;;;;;6157741;23;20096;-91
2023/04/23 03:44:42;;;;;;;38.85;29.15;;;9.20;99.90;;;;;;6155359;23;20021;-92
2023/04/23 03:47:08;;;;;;;38.72;28.77;;;9.20;99.90;;;;;;6157350;23;20032;-92
2023/04/23 03:49:34;;;;;;;38.47;29.55;;;9.20;99.90;;;;;;6157457;23;20118;-92
2023/04/23 03:51:59;;;;;;;37.47;28.65;;;9.20;99.90;;;;;;6157532;23;20334;-91
2023/04/23 03:54:27;;;;;;;38.13;28.17;;;9.20;99.90;;;;;;6155558;23;20334;-91
2023/04/23 03:56:53;;;;;;;34.22;26.63;;;9.10;99.90;;;;;;6157066;23;20378;-92
2023/04/23 03:59:19;;;;;;;34.55;26.80;;;9.20;99.90;;;;;;6155704;23;20064;-91
2023/04/23 04:01:47;;;;;;;36.63;28.33;;;9.10;99.90;;;;;;6154812;23;20013;-91
2023/04/23 04:04:13;;;;;;;37.83;28.92;;;9.10;99.90;;;;;;6157110;23;20027;-92
2023/04/23 04:06:39;;;;;;;34.92;27.40;;;9.10;99.90;;;;;;6156003;23;20013;-91
2023/04/23 04:09:06;;;;;;;39.75;30.33;;;9.10;99.90;;;;;;6156542;23;20017;-91
2023/04/23 04:11:32;;;;;;;44.58;29.48;;;9.00;99.90;;;;;;6156939;23;20044;-91
2023/04/23 04:13:58;;;;;;;87.55;35.60;;;9.00;99.90;;;;;;6155182;23;20451;-92
2023/04/23 04:16:23;;;;;;;39.88;29.30;;;9.00;99.90;;;;;;6155374;23;20020;-91
2023/04/23 04:18:49;;;;;;;87.20;33.72;;;9.00;99.90;;;;;;6155468;23;20097;-92
2023/04/23 04:21:16;;;;;;;40.33;31.15;;;9.00;99.90;;;;;;6154973;23;20064;-91
2023/04/23 04:23:42;;;;;;;39.67;30.90;;;8.90;99.90;;;;;;6154488;23;20093;-91
2023/04/23 04:26:08;;;;;;;77.68;37.15;;;8.90;99.90;;;;;;6155787;23;20024;-91
2023/04/23 04:28:36;;;;;;;39.95;31.10;;;9.00;99.90;;;;;;6156246;23;20010;-91
2023/04/23 04:31:05;;;;;;;42.42;33.42;;;8.90;99.90;;;;;;6157424;23;20076;-90
2023/04/23 04:33:34;;;;;;;44.03;32.92;;;8.90;99.90;;;;;;6156726;23;20017;-91
2023/04/23 04:36:00;;;;;;;72.13;37.47;;;8.90;99.90;;;;;;6156342;23;20518;-91
2023/04/23 04:38:27;;;;;;;43.00;32.92;;;8.90;99.90;;;;;;6156282;23;20450;-91
2023/04/23 04:40:59;;;;;;;46.65;35.28;;;8.90;99.90;;;;;;6156957;23;20537;-91
2023/04/23 04:43:25;;;;;;;48.72;35.67;;;8.80;99.90;;;;;;6154663;23;20018;-90
2023/04/23 04:45:51;;;;;;;42.15;33.47;;;8.90;99.90;;;;;;6155039;23;20088;-91
2023/04/23 04:48:16;;;;;;;44.92;35.00;;;8.90;99.90;;;;;;6156353;23;20017;-91
2023/04/23 04:50:43;;;;;;;117.70;42.67;;;8.80;99.90;;;;;;6154902;23;20084;-91
2023/04/23 04:53:08;;;;;;;44.72;34.97;;;8.80;99.90;;;;;;6156409;23;20022;-91
2023/04/23 04:55:34;;;;;;;45.75;34.50;;;8.80;99.90;;;;;;6155756;23;20072;-91
2023/04/23 04:58:00;;;;;;;53.97;37.47;;;8.80;99.90;;;;;;6154280;23;20020;-90
2023/04/23 05:00:28;;;;;;;63.00;40.28;;;8.80;99.90;;;;;;6155786;23;20022;-90
2023/04/23 05:02:57;;;;;;;60.53;40.40;;;8.80;99.90;;;;;;6157326;23;20014;-92
2023/04/23 05:05:24;;;;;;;123.97;50.05;;;8.80;99.90;;;;;;6154765;23;20021;-91
2023/04/23 05:07:50;;;;;;;75.45;46.50;;;8.80;99.90;;;;;;6156045;23;20017;-92
2023/04/23 05:10:16;;;;;;;78.15;47.97;;;8.80;99.90;;;;;;6156690;23;20021;-93
2023/04/23 05:12:42;;;;;;;59.88;42.22;;;8.80;99.90;;;;;;6155295;23;20009;-92
2023/04/23 05:15:12;;;;;;;73.30;45.13;;;8.80;99.90;;;;;;6155629;23;20013;-92
2023/04/23 05:17:38;;;;;;;64.40;45.05;;;8.80;99.90;;;;;;6154133;23;20072;-91
2023/04/23 05:20:04;;;;;;;85.18;52.17;;;8.80;99.90;;;;;;6157113;23;20013;-92
2023/04/23 05:22:30;;;;;;;86.97;52.42;;;8.90;99.90;;;;;;6154978;23;20072;-92
2023/04/23 05:24:56;;;;;;;71.93;48.40;;;8.90;99.90;;;;;;6156101;23;20021;-91
2023/04/23 05:27:21;;;;;;;59.22;43.03;;;8.90;99.90;;;;;;6154563;23;20014;-91
2023/04/23 05:29:47;;;;;;;90.57;57.08;;;8.90;99.90;;;;;;6179769;23;20022;-92
2023/04/23 05:32:13;;;;;;;58.45;42.00;;;8.90;99.90;;;;;;6155873;23;20029;-91
2023/04/23 05:34:39;;;;;;;61.95;43.60;;;8.90;99.90;;;;;;6154568;23;20048;-91
2023/04/23 05:37:05;;;;;;;63.03;44.67;;;8.90;99.90;;;;;;6155025;23;20052;-92
2023/04/23 05:39:31;;;;;;;75.75;50.05;;;8.90;99.90;;;;;;6154700;23;20020;-92
2023/04/23 05:41:57;;;;;;;73.38;49.65;;;8.90;99.90;;;;;;6156870;23;20338;-92
2023/04/23 05:44:22;;;;;;;80.22;52.65;;;9.00;99.90;;;;;;6156580;23;20025;-93
2023/04/23 05:46:48;;;;;;;79.25;51.75;;;9.00;99.90;;;;;;6155918;23;20014;-92
2023/04/23 05:49:14;;;;;;;82.45;53.83;;;9.00;99.90;;;;;;6156642;23;20051;-92
2023/04/23 05:51:39;;;;;;;89.53;55.78;;;9.00;99.90;;;;;;6154440;23;20346;-91
2023/04/23 05:54:05;;;;;;;85.15;53.58;;;9.00;99.90;;;;;;6155476;23;20017;-88
2023/04/23 05:56:30;;;;;;;76.85;51.80;;;9.00;99.90;;;;;;6153810;23;20005;-92
2023/04/23 05:58:56;;;;;;;82.60;53.22;;;9.00;99.90;;;;;;6154828;23;20056;-95
2023/04/23 06:01:22;;;;;;;71.47;48.33;;;9.00;99.90;;;;;;6156675;23;20005;-94
2023/04/23 06:03:48;;;;;;;67.97;46.60;;;9.00;99.90;;;;;;6157108;23;20085;-89
2023/04/23 06:06:13;;;;;;;70.05;47.85;;;9.00;99.90;;;;;;6154450;23;20025;-88
2023/04/23 06:08:39;;;;;;;72.88;49.53;;;9.00;99.90;;;;;;6153149;23;20334;-89
2023/04/23 06:11:05;;;;;;;73.55;49.55;;;9.10;99.90;;;;;;6156172;23;20021;-87
2023/04/23 06:13:31;;;;;;;76.28;50.35;;;9.10;99.90;;;;;;6153373;23;20009;-91
2023/04/23 06:15:57;;;;;;;70.82;47.88;;;9.10;99.90;;;;;;6155534;23;20014;-89
2023/04/23 06:18:23;;;;;;;80.53;51.70;;;9.10;99.90;;;;;;6156294;23;20598;-90
2023/04/23 06:20:50;;;;;;;82.93;53.00;;;9.20;99.90;;;;;;6155609;23;20045;-95
2023/04/23 06:23:16;;;;;;;68.60;46.28;;;9.20;99.90;;;;;;6155495;23;20017;-95
2023/04/23 06:25:42;;;;;;;71.38;47.22;;;9.30;99.90;;;;;;6155321;23;20024;-92
2023/04/23 06:28:07;;;;;;;71.40;47.70;;;9.30;99.90;;;;;;6156523;23;20018;-94
2023/04/23 06:30:33;;;;;;;66.78;46.70;;;9.30;99.90;;;;;;6154453;23;20025;-93
2023/04/23 06:33:00;;;;;;;66.40;45.00;;;9.30;99.90;;;;;;6156317;23;20052;-93
2023/04/23 06:35:26;;;;;;;72.20;47.53;;;9.40;99.90;;;;;;6153486;23;20041;-91
2023/04/23 06:37:51;;;;;;;74.57;48.65;;;9.40;99.90;;;;;;6155921;23;20017;-93
2023/04/23 06:40:17;;;;;;;73.88;48.47;;;9.50;99.90;;;;;;6154350;23;20394;-92
2023/04/23 06:42:44;;;;;;;74.50;48.15;;;9.60;99.90;;;;;;6155081;23;20021;-92
2023/04/23 06:45:10;;;;;;;74.15;47.13;;;9.60;99.90;;;;;;6153689;23;20018;-90
2023/04/23 06:47:36;;;;;;;75.00;47.45;;;9.70;99.90;;;;;;6155881;23;20010;-92
2023/04/23 06:50:01;;;;;;;75.75;48.53;;;9.80;99.90;;;;;;6153724;23;20448;-91
2023/04/23 06:52:27;;;;;;;65.55;45.05;;;9.80;99.90;;;;;;6154435;23;20014;-92
2023/04/23 06:54:52;;;;;;;71.97;46.92;;;9.90;99.90;;;;;;6154350;23;20021;-91
2023/04/23 06:57:18;;;;;;;76.45;46.25;;;10.00;99.90;;;;;;6154699;23;20365;-90
2023/04/23 06:59:44;;;;;;;70.38;46.72;;;10.00;99.90;;;;;;6152194;23;20406;-90
2023/04/23 07:02:09;;;;;;;64.28;42.97;;;10.10;99.90;;;;;;6152897;23;20322;-91
2023/04/23 07:04:36;;;;;;;62.40;43.38;;;10.20;99.90;;;;;;6151434;23;20049;-91
2023/04/23 07:07:02;;;;;;;64.60;43.85;;;10.30;99.90;;;;;;6153082;23;20028;-91
2023/04/23 07:09:28;;;;;;;60.72;43.00;;;10.30;99.90;;;;;;6156072;23;20334;-94
2023/04/23 07:11:53;;;;;;;63.63;42.67;;;10.40;99.90;;;;;;6156257;23;20010;-94
2023/04/23 07:14:19;;;;;;;65.03;43.67;;;10.40;99.90;;;;;;6155304;23;20021;-93
2023/04/23 07:16:45;;;;;;;58.30;41.85;;;10.50;99.90;;;;;;6156203;23;20014;-94
2023/04/23 07:19:10;;;;;;;60.97;42.58;;;10.60;99.90;;;;;;6155633;23;20017;-94
2023/04/23 07:21:36;;;;;;;71.55;44.35;;;10.70;99.90;;;;;;6158598;23;20453;-94
2023/04/23 07:24:05;;;;;;;58.05;39.30;;;10.70;99.90;;;;;;6161679;23;20018;-96
2023/04/23 07:26:37;;;;;;;59.95;42.03;;;10.80;99.90;;;;;;6159278;23;20024;-93
2023/04/23 07:29:05;;;;;;;56.22;41.20;;;10.90;99.90;;;;;;6157329;23;20025;-93
2023/04/23 07:31:31;;;;;;;51.70;38.42;;;10.90;99.90;;;;;;6160637;23;20009;-96
2023/04/23 07:33:56;;;;;;;55.55;40.08;;;11.00;99.90;;;;;;6157377;23;20021;-95
2023/04/23 07:36:22;;;;;;;56.63;40.22;;;11.10;99.90;;;;;;6160695;23;20016;-96
2023/04/23 07:38:48;;;;;;;55.50;38.75;;;11.10;99.90;;;;;;6156544;23;20454;-93
2023/04/23 07:41:14;;;;;;;53.83;38.08;;;11.20;99.90;;;;;;6157757;23;20017;-95
2023/04/23 07:43:39;;;;;;;52.78;37.80;;;11.30;99.90;;;;;;6157281;23;20096;-94
2023/04/23 07:46:06;;;;;;;53.10;37.60;;;11.40;99.90;;;;;;6159130;23;20024;-93
2023/04/23 07:48:33;;;;;;;52.92;36.80;;;11.50;99.90;;;;;;6157653;23;20005;-94
2023/04/23 07:51:00;;;;;;;53.05;35.28;;;11.50;99.90;;;;;;6159610;23;20342;-93
2023/04/23 07:53:27;;;;;;;48.58;34.97;;;11.60;99.90;;;;;;6157156;23;20342;-94
2023/04/23 07:55:56;;;;;;;50.08;36.70;;;11.70;99.90;;;;;;6156791;23;20017;-94
2023/04/23 07:58:23;;;;;;;44.42;34.17;;;11.80;99.90;;;;;;6157063;23;20441;-94
2023/04/23 08:00:49;;;;;;;44.97;32.80;;;11.80;99.90;;;;;;6158202;23;20036;-95
2023/04/23 08:03:15;;;;;;;44.67;32.72;;;11.90;99.90;;;;;;6156794;23;20066;-94
2023/04/23 08:05:40;;;;;;;42.35;32.00;;;12.00;99.90;;;;;;6156274;23;20031;-94
2023/04/23 08:08:07;;;;;;;45.13;32.75;;;12.00;99.90;;;;;;6156713;23;20010;-94
2023/04/23 08:10:34;;;;;;;40.17;30.73;;;12.10;99.90;;;;;;6159305;23;20022;-94
2023/04/23 08:13:00;;;;;;;39.88;31.00;;;12.20;99.90;;;;;;6159363;23;20085;-94
2023/04/23 08:15:26;;;;;;;44.28;30.70;;;12.20;99.90;;;;;;6158732;23;20029;-95
2023/04/23 08:17:51;;;;;;;39.22;29.17;;;12.30;99.90;;;;;;6158333;23;20018;-94
2023/04/23 08:20:18;;;;;;;40.30;31.08;;;12.40;99.90;;;;;;6157891;23;20017;-95
2023/04/23 08:22:43;;;;;;;38.90;29.67;;;12.50;99.90;;;;;;6160261;23;20048;-95
2023/04/23 08:25:09;;;;;;;38.05;29.45;;;12.60;99.90;;;;;;6158323;23;20378;-94
2023/04/23 08:27:35;;;;;;;36.05;28.70;;;12.60;99.90;;;;;;6162244;23;20381;-94
2023/04/23 08:30:01;;;;;;;38.75;28.83;;;12.70;99.90;;;;;;6164686;23;20047;-94
2023/04/23 08:32:28;;;;;;;34.88;28.33;;;12.80;99.90;;;;;;6165316;23;20017;-96
2023/04/23 08:34:53;;;;;;;34.67;26.92;;;12.90;99.90;;;;;;6188840;23;20021;-94
2023/04/23 08:37:19;;;;;;;35.20;27.10;;;13.00;99.90;;;;;;6162404;23;20087;-95
2023/04/23 08:39:45;;;;;;;35.92;27.58;;;13.10;99.90;;;;;;6163394;23;20023;-95
2023/04/23 08:42:22;;;;;;;32.88;25.85;;;13.10;99.90;;;;;;6162145;23;20092;-95
2023/04/23 08:44:50;;;;;;;34.55;26.27;;;13.10;99.90;;;;;;6161675;23;20056;-95
2023/04/23 08:47:17;;;;;;;33.45;24.27;;;13.20;99.90;;;;;;6188560;23;20028;-95
2023/04/23 08:49:45;;;;;;;30.45;23.23;;;13.30;99.90;;;;;;6161319;23;20063;-94
2023/04/23 08:52:16;;;;;;;27.88;21.67;;;13.40;99.90;;;;;;6188978;23;20040;-96
2023/04/23 08:54:48;;;;;;;28.30;21.52;;;13.40;99.90;;;;;;6162505;23;20117;-94
2023/04/23 08:57:16;;;;;;;28.80;22.10;;;13.50;99.90;;;;;;6188068;23;20020;-95
2023/04/23 08:59:42;;;;;;;29.88;21.88;;;13.60;99.90;;;;;;6161779;23;20020;-96
2023/04/23 09:02:09;;;;;;;27.90;21.17;;;13.70;99.90;;;;;;6164172;23;20095;-95
2023/04/23 09:04:38;;;;;;;25.92;19.95;;;13.80;99.90;;;;;;6166048;23;20088;-96
2023/04/23 09:07:06;;;;;;;23.30;18.17;;;13.90;99.90;;;;;;6166891;23;20520;-96
2023/04/23 09:09:33;;;;;;;26.90;19.98;;;14.00;99.90;;;;;;6194182;23;20079;-96
2023/04/23 09:12:00;;;;;;;25.65;19.05;;;14.00;99.90;;;;;;6165596;23;20454;-94
2023/04/23 09:14:25;;;;;;;22.70;16.55;;;14.10;99.90;;;;;;6140650;23;20139;-94
2023/04/23 09:16:53;;;;;;;21.83;15.93;;;14.20;99.90;;;;;;6191491;23;20439;-95
2023/04/23 09:19:19;;;;;;;22.80;17.20;;;14.20;99.90;;;;;;6162943;23;20021;-96
2023/04/23 09:21:54;;;;;;;20.90;16.00;;;14.30;99.90;;;;;;6189666;23;20067;-92
2023/04/23 09:24:24;;;;;;;20.85;14.77;;;14.40;99.90;;;;;;6187902;23;20512;-89
2023/04/23 09:27:53;;;;;;;21.65;15.90;;;14.50;99.90;;;;;;6165169;23;20518;-94
2023/04/23 09:30:53;;;;;;;21.77;14.13;;;14.60;99.90;;;;;;6154877;23;20017;-93
2023/04/23 09:37:09;;;;;;;;;;;;;;;;;;;;;
2023/04/23 09:39:55;;;;;;;19.45;11.82;;;14.80;99.90;;;;;;6127211;23;20014;-93
2023/04/23 09:42:27;;;;;;;20.85;12.65;;;14.80;99.90;;;;;;6154716;23;20021;-91
2023/04/23 09:45:11;;;;;;;18.63;11.15;;;15.00;99.90;;;;;;6153722;23;20053;-88
2023/04/23 09:47:39;;;;;;;20.38;10.95;;;15.00;99.90;;;;;;6154308;23;20028;-88
2023/04/23 09:50:06;;;;;;;19.65;10.93;;;15.10;99.90;;;;;;6156200;23;20051;-88
2023/04/23 09:52:32;;;;;;;20.10;11.10;;;15.10;99.90;;;;;;6153058;23;20339;-90
2023/04/23 09:55:38;;;;;;;21.00;9.80;;;15.20;99.90;;;;;;6158745;23;20020;-89
2023/04/23 09:58:14;;;;;;;16.70;9.77;;;15.30;99.70;;;;;;6166454;23;20033;-88
2023/04/23 10:00:40;;;;;;;17.85;9.00;;;15.40;99.80;;;;;;6159776;23;20013;-87
2023/04/23 10:03:07;;;;;;;17.38;9.88;;;15.40;99.20;;;;;;6159375;23;20080;-88
2023/04/23 10:05:40;;;;;;;16.55;8.80;;;15.50;99.40;;;;;;6154887;23;20017;-88
2023/04/23 10:08:06;;;;;;;18.77;8.75;;;15.50;99.00;;;;;;6155725;23;20045;-89
2023/04/23 10:10:33;;;;;;;13.73;7.57;;;15.50;99.10;;;;;;6153594;23;20451;-88
2023/04/23 10:13:00;;;;;;;14.43;8.60;;;15.50;98.40;;;;;;6154436;23;20017;-88
2023/04/23 10:15:26;;;;;;;17.05;9.82;;;15.60;98.30;;;;;;6154240;23;20013;-87
2023/04/23 10:17:54;;;;;;;16.60;8.20;;;15.70;99.10;;;;;;6155492;23;20025;-87
2023/04/23 10:20:21;;;;;;;15.90;7.72;;;15.80;98.90;;;;;;6153264;23;20009;-87
2023/04/23 10:22:47;;;;;;;15.57;8.25;;;15.70;98.70;;;;;;6152871;23;20346;-86
2023/04/23 10:25:14;;;;;;;14.60;7.75;;;15.80;98.70;;;;;;6155248;23;20057;-88
2023/04/23 10:27:42;;;;;;;12.15;7.22;;;15.90;98.00;;;;;;6154660;23;20017;-85
2023/04/23 10:30:10;;;;;;;14.57;7.80;;;16.00;97.50;;;;;;6154616;23;20053;-86
2023/04/23 10:32:37;;;;;;;13.23;7.05;;;16.10;97.40;;;;;;6154591;23;20378;-85
2023/04/23 10:35:03;;;;;;;13.43;6.80;;;16.20;97.60;;;;;;6152008;23;20014;-86
2023/04/23 10:37:30;;;;;;;13.60;6.63;;;16.30;96.90;;;;;;6156173;23;20021;-86
2023/04/23 10:40:08;;;;;;;12.50;6.60;;;16.30;96.40;;;;;;6154733;23;20017;-89
2023/04/23 10:42:34;;;;;;;12.60;6.38;;;16.40;95.80;;;;;;6153972;23;20025;-87
2023/04/23 10:45:00;;;;;;;10.38;5.88;;;16.50;96.00;;;;;;6154174;23;20021;-87
2023/04/23 10:47:25;;;;;;;12.88;6.40;;;16.60;96.20;;;;;;6153031;23;20338;-88
2023/04/23 10:49:51;;;;;;;13.23;6.53;;;16.60;96.40;;;;;;6153039;23;20362;-91
2023/04/23 10:52:18;;;;;;;15.43;6.10;;;16.70;96.50;;;;;;6154918;23;20320;-91
2023/04/23 10:54:48;;;;;;;13.18;5.32;;;16.80;95.90;;;;;;6155939;23;20025;-91
2023/04/23 10:57:13;;;;;;;11.77;5.72;;;16.90;95.00;;;;;;6156459;23;20020;-91
2023/04/23 10:59:54;;;;;;;11.20;5.40;;;16.90;95.20;;;;;;6155963;23;20013;-90
2023/04/23 11:02:22;;;;;;;13.05;4.78;;;17.00;95.50;;;;;;6155559;23;20017;-91
2023/04/23 11:04:55;;;;;;;10.50;4.85;;;17.00;94.50;;;;;;6157201;23;20446;-91
2023/04/23 11:07:28;;;;;;;13.27;5.22;;;17.10;94.70;;;;;;6155705;23;20028;-92
2023/04/23 11:09:57;;;;;;;8.95;4.30;;;17.10;95.20;;;;;;6155560;23;20408;-92
2023/04/23 11:12:26;;;;;;;11.75;4.32;;;17.20;95.00;;;;;;6157336;23;20018;-90
2023/04/23 11:14:55;;;;;;;9.52;3.83;;;17.20;94.20;;;;;;6155820;23;20021;-90
2023/04/23 11:17:23;;;;;;;8.68;3.58;;;17.30;94.00;;;;;;6155184;23;20039;-91
2023/04/23 11:20:09;;;;;;;10.70;4.03;;;17.20;93.40;;;;;;6157305;23;20021;-91
2023/04/23 11:22:42;;;;;;;9.88;4.28;;;17.20;92.80;;;;;;6155055;23;20052;-91
2023/04/23 11:25:10;;;;;;;7.53;3.15;;;17.30;93.60;;;;;;6155006;23;20088;-90
2023/04/23 11:27:41;;;;;;;10.18;3.53;;;17.40;93.50;;;;;;6154706;23;20017;-89
2023/04/23 11:30:14;;;;;;;10.75;3.25;;;17.40;92.80;;;;;;6154743;23;20032;-90
2023/04/23 11:32:40;;;;;;;;;;;17.40;92.70;;;;;;6155606;23;20133;-91
2023/04/23 11:35:08;;;;;;;8.15;2.70;;;17.40;93.00;;;;;;6155507;23;19924;-90
2023/04/23 11:37:41;;;;;;;8.70;2.70;;;17.50;92.50;;;;;;6156229;23;20064;-90
2023/04/23 11:40:08;;;;;;;;;;;17.60;91.90;;;;;;6156004;23;20040;-90
2023/04/23 11:42:48;;;;;;;9.23;2.90;;;17.60;92.20;;;;;;6155344;23;19924;-89
2023/04/23 11:45:21;;;;;;;9.05;2.92;;;17.70;92.30;;;;;;6156698;23;20021;-88
2023/04/23 11:47:49;;;;;;;8.98;2.80;;;17.70;92.40;;;;;;6156831;23;20018;-89
2023/04/23 11:50:31;;;;;;;6.03;2.35;;;17.70;91.90;;;;;;6155555;23;20451;-89
2023/04/23 11:53:08;;;;;;;7.72;2.30;;;17.80;90.90;;;;;;6153952;23;20521;-89
2023/04/23 11:55:33;;;;;;;8.73;2.90;;;17.80;91.30;;;;;;6154644;23;20025;-88
2023/04/23 11:57:59;;;;;;;8.82;2.85;;;17.80;91.80;;;;;;6157348;23;20014;-90
2023/04/23 12:00:26;;;;;;;7.43;2.15;;;17.90;91.70;;;;;;6156157;23;20525;-91
2023/04/23 12:02:57;;;;;;;10.70;2.92;;;17.90;91.50;;;;;;6156856;23;20024;-91
2023/04/23 12:05:34;;;;;;;8.40;2.28;;;17.90;91.70;;;;;;6156192;23;20018;-90
2023/04/23 12:08:16;;;;;;;7.43;2.00;;;18.00;91.30;;;;;;6155376;23;20342;-91
2023/04/23 12:10:48;;;;;;;9.53;2.27;;;18.00;90.20;;;;;;6156195;23;20017;-92
2023/04/23 12:13:16;;;;;;;5.88;1.92;;;18.10;90.80;;;;;;6153723;23;20509;-88
2023/04/23 12:15:55;;;;;;;7.72;2.30;;;18.10;90.60;;;;;;6156442;23;20028;-89
2023/04/23 12:18:30;;;;;;;9.00;2.10;;;18.20;90.60;;;;;;6157257;23;20014;-88
2023/04/23 12:21:03;;;;;;;8.13;2.25;;;18.20;89.20;;;;;;6154140;23;20017;-90
2023/04/23 12:23:29;;;;;;;8.90;2.08;;;18.20;90.00;;;;;;6154288;23;20014;-88
2023/04/23 12:25:55;;;;;;;7.60;2.17;;;18.20;88.50;;;;;;6155619;23;20020;-89
2023/04/23 12:28:24;;;;;;;9.27;2.33;;;18.20;89.10;;;;;;6155858;23;20060;-90
2023/04/23 12:30:51;;;;;;;4.55;1.92;;;18.20;88.80;;;;;;6154147;23;20442;-90
2023/04/23 12:33:17;;;;;;;5.38;2.10;;;18.20;90.40;;;;;;6156026;23;20020;-89
2023/04/23 12:35:50;;;;;;;9.27;2.40;;;18.30;91.30;;;;;;6154436;23;20013;-89
2023/04/23 12:38:29;;;;;;;9.50;2.50;;;18.30;90.90;;;;;;6156830;23;20343;-89
2023/04/23 12:40:58;;;;;;;6.28;2.03;;;18.30;90.10;;;;;;6158058;23;20021;-88